createdAt,value
2018-07-28T00:00:03.773Z,25.74
2018-07-28T00:00:13.796Z,25.68
2018-07-28T00:00:23.822Z,25.78
2018-07-28T00:00:33.813Z,25.74
2018-07-28T00:00:43.851Z,25.72
2018-07-28T00:00:53.861Z,25.74
2018-07-28T00:01:03.852Z,25.71
2018-07-28T00:01:13.872Z,25.75
2018-07-28T00:01:23.893Z,25.72
2018-07-28T00:01:33.902Z,25.74
2018-07-28T00:01:44.013Z,25.68
2018-07-28T00:01:53.925Z,25.71
2018-07-28T00:02:03.943Z,25.74
2018-07-28T00:02:13.963Z,25.7
2018-07-28T00:02:23.972Z,25.74
2018-07-28T00:02:33.993Z,25.74
2018-07-28T00:02:43.985Z,25.75
2018-07-28T00:02:54.003Z,25.71
2018-07-28T00:03:04.036Z,25.78
2018-07-28T00:03:14.035Z,25.78
2018-07-28T00:03:24.052Z,25.82
2018-07-28T00:03:34.091Z,25.82
2018-07-28T00:03:44.085Z,25.74
2018-07-28T00:03:54.094Z,25.71
2018-07-28T00:04:04.120Z,25.77
2018-07-28T00:04:14.115Z,25.78
2018-07-28T00:04:24.139Z,25.79
2018-07-28T00:04:34.152Z,25.72
2018-07-28T00:04:44.162Z,25.71
2018-07-28T00:04:54.193Z,25.79
2018-07-28T00:05:04.203Z,25.68
2018-07-28T00:05:14.223Z,25.78
2018-07-28T00:05:24.222Z,25.74
2018-07-28T00:05:34.234Z,25.75
2018-07-28T00:05:44.266Z,25.83
2018-07-28T00:05:54.260Z,25.77
2018-07-28T00:06:04.273Z,25.74
2018-07-28T00:06:14.294Z,25.75
2018-07-28T00:06:24.302Z,25.72
2018-07-28T00:06:34.312Z,25.75
2018-07-28T00:06:44.362Z,25.77
2018-07-28T00:06:54.334Z,25.68
2018-07-28T00:07:04.354Z,25.75
2018-07-28T00:07:14.362Z,25.77
2018-07-28T00:07:24.402Z,25.71
2018-07-28T00:07:34.412Z,25.71
2018-07-28T00:07:44.412Z,25.74
2018-07-28T00:07:54.443Z,25.75
2018-07-28T00:08:04.453Z,25.7
2018-07-28T00:08:14.453Z,25.71
2018-07-28T00:08:24.476Z,25.7
2018-07-28T00:08:34.480Z,25.67
2018-07-28T00:08:44.498Z,25.72
2018-07-28T00:08:54.513Z,25.7
2018-07-28T00:09:04.521Z,25.74
2018-07-28T00:09:14.543Z,25.78
2018-07-28T00:09:24.563Z,25.7
2018-07-28T00:09:34.561Z,25.7
2018-07-28T00:09:44.573Z,25.74
2018-07-28T00:09:54.604Z,25.77
2018-07-28T00:10:04.628Z,25.68
2018-07-28T00:10:14.635Z,25.71
2018-07-28T00:10:24.641Z,25.75
2018-07-28T00:10:34.663Z,25.78
2018-07-28T00:10:44.653Z,25.72
2018-07-28T00:10:54.663Z,25.72
2018-07-28T00:11:04.703Z,25.74
2018-07-28T00:11:14.696Z,25.68
2018-07-28T00:11:24.693Z,25.78
2018-07-28T00:11:34.744Z,25.7
2018-07-28T00:11:44.753Z,25.7
2018-07-28T00:11:54.766Z,25.7
2018-07-28T00:12:04.785Z,25.77
2018-07-28T00:12:14.795Z,25.68
2018-07-28T00:12:24.792Z,25.75
2018-07-28T00:12:34.815Z,25.74
2018-07-28T00:12:44.848Z,25.7
2018-07-28T00:12:54.841Z,25.77
2018-07-28T00:13:04.867Z,25.72
2018-07-28T00:13:14.873Z,25.7
2018-07-28T00:13:24.892Z,25.74
2018-07-28T00:13:34.900Z,25.7
2018-07-28T00:13:44.934Z,25.72
2018-07-28T00:13:54.913Z,25.72
2018-07-28T00:14:04.937Z,25.68
2018-07-28T00:14:14.963Z,25.7
2018-07-28T00:14:24.977Z,25.77
2018-07-28T00:14:34.984Z,25.7
2018-07-28T00:14:45.001Z,25.72
2018-07-28T00:14:55.028Z,25.7
2018-07-28T00:15:05.033Z,25.74
2018-07-28T00:15:15.034Z,25.72
2018-07-28T00:15:25.069Z,25.72
2018-07-28T00:15:35.063Z,25.77
2018-07-28T00:15:45.076Z,25.7
2018-07-28T00:15:55.094Z,25.71
2018-07-28T00:16:05.115Z,25.74
2018-07-28T00:16:15.128Z,25.71
2018-07-28T00:16:25.141Z,25.72
2018-07-28T00:16:35.162Z,25.71
2018-07-28T00:16:45.224Z,25.72
2018-07-28T00:16:55.184Z,25.71
2018-07-28T00:17:05.221Z,25.68
2018-07-28T00:17:15.195Z,25.72
2018-07-28T00:17:25.214Z,25.75
2018-07-28T00:17:35.224Z,25.77
2018-07-28T00:17:45.234Z,25.72
2018-07-28T00:17:55.266Z,25.72
2018-07-28T00:18:05.273Z,25.7
2018-07-28T00:18:15.285Z,25.7
2018-07-28T00:18:25.293Z,25.72
2018-07-28T00:18:35.324Z,25.7
2018-07-28T00:18:45.341Z,25.71
2018-07-28T00:18:55.328Z,25.72
2018-07-28T00:19:05.364Z,25.67
2018-07-28T00:19:15.384Z,25.7
2018-07-28T00:19:25.388Z,25.72
2018-07-28T00:19:35.424Z,25.71
2018-07-28T00:19:45.424Z,25.75
2018-07-28T00:19:55.424Z,25.72
2018-07-28T00:20:05.434Z,25.68
2018-07-28T00:20:15.467Z,25.7
2018-07-28T00:20:25.473Z,25.7
2018-07-28T00:20:35.491Z,25.65
2018-07-28T00:20:45.497Z,25.7
2018-07-28T00:20:55.522Z,25.72
2018-07-28T00:21:05.514Z,25.74
2018-07-28T00:21:15.536Z,25.68
2018-07-28T00:21:25.564Z,25.74
2018-07-28T00:21:35.556Z,25.71
2018-07-28T00:21:45.642Z,25.75
2018-07-28T00:21:55.596Z,25.7
2018-07-28T00:22:05.596Z,25.71
2018-07-28T00:22:15.615Z,25.74
2018-07-28T00:22:25.636Z,25.7
2018-07-28T00:22:35.639Z,25.72
2018-07-28T00:22:45.656Z,25.72
2018-07-28T00:22:55.674Z,25.74
2018-07-28T00:23:05.696Z,25.78
2018-07-28T00:23:15.702Z,25.77
2018-07-28T00:23:25.714Z,25.74
2018-07-28T00:23:35.734Z,25.77
2018-07-28T00:23:45.748Z,25.71
2018-07-28T00:23:55.772Z,25.68
2018-07-28T00:24:05.784Z,25.7
2018-07-28T00:24:15.781Z,25.79
2018-07-28T00:24:25.802Z,25.75
2018-07-28T00:24:35.819Z,25.7
2018-07-28T00:24:45.815Z,25.72
2018-07-28T00:24:55.825Z,25.79
2018-07-28T00:25:05.864Z,25.72
2018-07-28T00:25:15.875Z,25.72
2018-07-28T00:25:25.865Z,25.72
2018-07-28T00:25:35.898Z,25.78
2018-07-28T00:25:45.915Z,25.72
2018-07-28T00:25:55.925Z,25.74
2018-07-28T00:26:05.938Z,25.74
2018-07-28T00:26:15.935Z,25.68
2018-07-28T00:26:25.954Z,25.68
2018-07-28T00:26:35.999Z,25.7
2018-07-28T00:26:46.047Z,25.78
2018-07-28T00:26:55.995Z,25.83
2018-07-28T00:27:06.015Z,25.75
2018-07-28T00:27:16.028Z,25.75
2018-07-28T00:27:26.037Z,25.75
2018-07-28T00:27:36.046Z,25.75
2018-07-28T00:27:46.075Z,25.77
2018-07-28T00:27:56.106Z,25.72
2018-07-28T00:28:06.103Z,25.79
2018-07-28T00:28:16.125Z,25.7
2018-07-28T00:28:26.149Z,25.7
2018-07-28T00:28:36.143Z,25.77
2018-07-28T00:28:46.166Z,25.72
2018-07-28T00:28:56.177Z,25.67
2018-07-28T00:29:06.174Z,25.67
2018-07-28T00:29:16.195Z,25.71
2018-07-28T00:29:26.231Z,25.71
2018-07-28T00:29:36.242Z,25.68
2018-07-28T00:29:46.247Z,25.77
2018-07-28T00:29:56.267Z,25.79
2018-07-28T00:30:06.335Z,25.71
2018-07-28T00:30:16.283Z,25.78
2018-07-28T00:30:26.297Z,25.74
2018-07-28T00:30:36.317Z,25.75
2018-07-28T00:30:46.325Z,25.78
2018-07-28T00:30:56.336Z,25.7
2018-07-28T00:31:06.355Z,25.75
2018-07-28T00:31:16.355Z,25.74
2018-07-28T00:31:26.385Z,25.72
2018-07-28T00:31:36.396Z,25.74
2018-07-28T00:31:46.455Z,25.75
2018-07-28T00:31:56.416Z,25.7
2018-07-28T00:32:06.443Z,25.67
2018-07-28T00:32:16.464Z,25.78
2018-07-28T00:32:26.456Z,25.78
2018-07-28T00:32:36.486Z,25.75
2018-07-28T00:32:46.496Z,25.72
2018-07-28T00:32:56.496Z,25.71
2018-07-28T00:33:06.515Z,25.74
2018-07-28T00:33:16.538Z,25.68
2018-07-28T00:33:26.544Z,25.72
2018-07-28T00:33:36.556Z,25.68
2018-07-28T00:33:46.586Z,25.74
2018-07-28T00:33:56.581Z,25.74
2018-07-28T00:34:06.605Z,25.68
2018-07-28T00:34:16.606Z,25.74
2018-07-28T00:34:26.645Z,25.71
2018-07-28T00:34:36.636Z,25.72
2018-07-28T00:34:46.669Z,25.77
2018-07-28T00:34:56.666Z,25.72
2018-07-28T00:35:06.694Z,25.75
2018-07-28T00:35:16.700Z,25.75
2018-07-28T00:35:26.720Z,25.71
2018-07-28T00:35:36.722Z,25.71
2018-07-28T00:35:46.746Z,25.71
2018-07-28T00:35:56.763Z,25.68
2018-07-28T00:36:06.764Z,25.71
2018-07-28T00:36:16.779Z,25.77
2018-07-28T00:36:26.814Z,25.71
2018-07-28T00:36:36.815Z,25.74
2018-07-28T00:36:46.821Z,25.74
2018-07-28T00:36:56.844Z,25.71
2018-07-28T00:37:06.866Z,25.67
2018-07-28T00:37:16.860Z,25.77
2018-07-28T00:37:26.887Z,25.74
2018-07-28T00:37:36.906Z,25.71
2018-07-28T00:37:46.896Z,25.71
2018-07-28T00:37:56.920Z,25.68
2018-07-28T00:38:06.936Z,25.75
2018-07-28T00:38:16.963Z,25.78
2018-07-28T00:38:26.963Z,25.72
2018-07-28T00:38:36.984Z,25.74
2018-07-28T00:38:46.998Z,25.72
2018-07-28T00:38:57.003Z,25.71
2018-07-28T00:39:07.017Z,25.79
2018-07-28T00:39:17.058Z,25.67
2018-07-28T00:39:27.038Z,25.72
2018-07-28T00:39:37.064Z,25.7
2018-07-28T00:39:47.084Z,25.75
2018-07-28T00:39:57.077Z,25.67
2018-07-28T00:40:07.107Z,25.72
2018-07-28T00:40:17.123Z,25.75
2018-07-28T00:40:27.127Z,25.71
2018-07-28T00:40:37.137Z,25.74
2018-07-28T00:40:47.152Z,25.71
2018-07-28T00:40:57.177Z,25.74
2018-07-28T00:41:07.187Z,25.67
2018-07-28T00:41:17.238Z,25.71
2018-07-28T00:41:27.229Z,25.68
2018-07-28T00:41:37.221Z,25.71
2018-07-28T00:41:47.281Z,25.74
2018-07-28T00:41:57.262Z,25.7
2018-07-28T00:42:07.258Z,25.71
2018-07-28T00:42:17.287Z,25.72
2018-07-28T00:42:27.287Z,25.7
2018-07-28T00:42:37.308Z,25.72
2018-07-28T00:42:47.316Z,25.65
2018-07-28T00:42:57.344Z,25.71
2018-07-28T00:43:07.357Z,25.72
2018-07-28T00:43:17.357Z,25.71
2018-07-28T00:43:27.379Z,25.71
2018-07-28T00:43:37.398Z,25.64
2018-07-28T00:43:47.397Z,25.68
2018-07-28T00:43:57.426Z,25.71
2018-07-28T00:44:07.441Z,25.74
2018-07-28T00:44:17.439Z,25.7
2018-07-28T00:44:27.449Z,25.68
2018-07-28T00:44:37.467Z,25.67
2018-07-28T00:44:47.476Z,25.75
2018-07-28T00:44:57.500Z,25.72
2018-07-28T00:45:07.529Z,25.71
2018-07-28T00:45:17.546Z,25.74
2018-07-28T00:45:27.549Z,25.71
2018-07-28T00:45:37.552Z,25.72
2018-07-28T00:45:47.577Z,25.74
2018-07-28T00:45:57.579Z,25.72
2018-07-28T00:46:07.595Z,25.7
2018-07-28T00:46:17.617Z,25.65
2018-07-28T00:46:27.617Z,25.7
2018-07-28T00:46:37.648Z,25.68
2018-07-28T00:46:47.717Z,25.71
2018-07-28T00:46:57.657Z,25.57
2018-07-28T00:47:07.680Z,25.67
2018-07-28T00:47:17.699Z,25.72
2018-07-28T00:47:27.698Z,25.75
2018-07-28T00:47:37.718Z,25.65
2018-07-28T00:47:47.738Z,25.68
2018-07-28T00:47:57.773Z,25.7
2018-07-28T00:48:07.758Z,25.7
2018-07-28T00:48:17.780Z,25.71
2018-07-28T00:48:27.798Z,25.72
2018-07-28T00:48:37.791Z,25.68
2018-07-28T00:48:47.816Z,25.7
2018-07-28T00:48:57.828Z,25.71
2018-07-28T00:49:07.839Z,25.67
2018-07-28T00:49:17.860Z,25.68
2018-07-28T00:49:27.889Z,25.68
2018-07-28T00:49:37.888Z,25.71
2018-07-28T00:49:47.889Z,25.68
2018-07-28T00:49:57.908Z,25.74
2018-07-28T00:50:07.940Z,25.7
2018-07-28T00:50:17.958Z,25.71
2018-07-28T00:50:27.958Z,25.72
2018-07-28T00:50:37.967Z,25.72
2018-07-28T00:50:47.999Z,25.68
2018-07-28T00:50:57.998Z,25.75
2018-07-28T00:51:08.011Z,25.71
2018-07-28T00:51:18.031Z,25.7
2018-07-28T00:51:28.039Z,25.71
2018-07-28T00:51:38.048Z,25.72
2018-07-28T00:51:48.139Z,25.67
2018-07-28T00:51:58.078Z,25.67
2018-07-28T00:52:08.108Z,25.67
2018-07-28T00:52:18.121Z,25.72
2018-07-28T00:52:28.132Z,25.71
2018-07-28T00:52:38.138Z,25.7
2018-07-28T00:52:48.160Z,25.7
2018-07-28T00:52:58.170Z,25.7
2018-07-28T00:53:08.168Z,25.67
2018-07-28T00:53:18.193Z,25.67
2018-07-28T00:53:28.224Z,25.72
2018-07-28T00:53:38.212Z,25.65
2018-07-28T00:53:48.240Z,25.72
2018-07-28T00:53:58.248Z,25.75
2018-07-28T00:54:08.267Z,25.62
2018-07-28T00:54:18.287Z,25.72
2018-07-28T00:54:28.298Z,25.67
2018-07-28T00:54:38.308Z,25.56
2018-07-28T00:54:48.326Z,25.59
2018-07-28T00:54:58.351Z,25.55
2018-07-28T00:55:08.349Z,25.64
2018-07-28T00:55:18.358Z,25.53
2018-07-28T00:55:28.378Z,25.62
2018-07-28T00:55:38.400Z,25.64
2018-07-28T00:55:48.390Z,25.7
2018-07-28T00:55:58.408Z,25.7
2018-07-28T00:56:08.427Z,25.53
2018-07-28T00:56:18.439Z,25.57
2018-07-28T00:56:28.449Z,25.6
2018-07-28T00:56:38.480Z,25.67
2018-07-28T00:56:48.555Z,25.72
2018-07-28T00:56:58.493Z,25.64
2018-07-28T00:57:08.517Z,25.67
2018-07-28T00:57:18.544Z,25.56
2018-07-28T00:57:28.551Z,25.53
2018-07-28T00:57:38.560Z,25.55
2018-07-28T00:57:48.589Z,25.6
2018-07-28T00:57:58.578Z,25.55
2018-07-28T00:58:08.617Z,25.7
2018-07-28T00:58:18.618Z,25.56
2018-07-28T00:58:28.619Z,25.64
2018-07-28T00:58:38.629Z,25.59
2018-07-28T00:58:48.639Z,25.59
2018-07-28T00:58:58.679Z,25.7
2018-07-28T00:59:08.680Z,25.7
2018-07-28T00:59:18.699Z,25.56
2018-07-28T00:59:28.709Z,25.55
2018-07-28T00:59:38.708Z,25.68
2018-07-28T00:59:48.731Z,25.53
2018-07-28T00:59:58.759Z,25.55
2018-07-28T01:00:08.761Z,25.7
2018-07-28T01:00:18.768Z,25.7
2018-07-28T01:00:28.801Z,25.55
2018-07-28T01:00:38.789Z,25.68
2018-07-28T01:00:48.823Z,25.64
2018-07-28T01:00:58.841Z,25.64
2018-07-28T01:01:08.869Z,25.57
2018-07-28T01:01:18.861Z,25.6
2018-07-28T01:01:28.872Z,25.7
2018-07-28T01:01:38.890Z,25.59
2018-07-28T01:01:49.041Z,25.67
2018-07-28T01:01:58.927Z,25.68
2018-07-28T01:02:08.940Z,25.68
2018-07-28T01:02:18.929Z,25.6
2018-07-28T01:02:28.951Z,25.62
2018-07-28T01:02:38.969Z,25.72
2018-07-28T01:02:48.968Z,25.55
2018-07-28T01:02:58.993Z,25.7
2018-07-28T01:03:09.019Z,25.62
2018-07-28T01:03:19.029Z,25.64
2018-07-28T01:03:29.039Z,25.6
2018-07-28T01:03:39.049Z,25.64
2018-07-28T01:03:49.076Z,25.55
2018-07-28T01:03:59.069Z,25.6
2018-07-28T01:04:09.090Z,25.53
2018-07-28T01:04:19.115Z,25.59
2018-07-28T01:04:29.127Z,25.6
2018-07-28T01:04:39.136Z,25.53
2018-07-28T01:04:49.150Z,25.65
2018-07-28T01:04:59.153Z,25.64
2018-07-28T01:05:09.187Z,25.59
2018-07-28T01:05:19.204Z,25.53
2018-07-28T01:05:29.213Z,25.65
2018-07-28T01:05:39.212Z,25.59
2018-07-28T01:05:49.240Z,25.55
2018-07-28T01:05:59.249Z,25.59
2018-07-28T01:06:09.251Z,25.57
2018-07-28T01:06:19.270Z,25.7
2018-07-28T01:06:29.310Z,25.6
2018-07-28T01:06:39.312Z,25.59
2018-07-28T01:06:49.310Z,25.57
2018-07-28T01:06:59.330Z,25.59
2018-07-28T01:07:09.340Z,25.59
2018-07-28T01:07:19.362Z,25.6
2018-07-28T01:07:29.371Z,25.62
2018-07-28T01:07:39.390Z,25.6
2018-07-28T01:07:49.418Z,25.6
2018-07-28T01:07:59.412Z,25.53
2018-07-28T01:08:09.430Z,25.68
2018-07-28T01:08:19.431Z,25.57
2018-07-28T01:08:29.460Z,25.57
2018-07-28T01:08:39.487Z,25.57
2018-07-28T01:08:49.470Z,25.6
2018-07-28T01:08:59.500Z,25.6
2018-07-28T01:09:09.522Z,25.57
2018-07-28T01:09:19.512Z,25.57
2018-07-28T01:09:29.532Z,25.57
2018-07-28T01:09:39.550Z,25.64
2018-07-28T01:09:49.550Z,25.56
2018-07-28T01:09:59.570Z,25.62
2018-07-28T01:10:09.601Z,25.59
2018-07-28T01:10:19.620Z,25.53
2018-07-28T01:10:29.612Z,25.64
2018-07-28T01:10:39.631Z,25.56
2018-07-28T01:10:49.661Z,25.56
2018-07-28T01:10:59.660Z,25.57
2018-07-28T01:11:09.670Z,25.55
2018-07-28T01:11:19.689Z,25.65
2018-07-28T01:11:29.691Z,25.56
2018-07-28T01:11:39.720Z,25.6
2018-07-28T01:11:49.740Z,25.59
2018-07-28T01:11:59.737Z,25.57
2018-07-28T01:12:09.749Z,25.53
2018-07-28T01:12:19.776Z,25.65
2018-07-28T01:12:29.790Z,25.59
2018-07-28T01:12:39.791Z,25.55
2018-07-28T01:12:49.815Z,25.64
2018-07-28T01:12:59.843Z,25.68
2018-07-28T01:13:09.838Z,25.62
2018-07-28T01:13:19.857Z,25.65
2018-07-28T01:13:29.871Z,25.6
2018-07-28T01:13:39.879Z,25.53
2018-07-28T01:13:49.899Z,25.67
2018-07-28T01:13:59.912Z,25.68
2018-07-28T01:14:09.922Z,25.65
2018-07-28T01:14:19.949Z,25.59
2018-07-28T01:14:29.968Z,25.6
2018-07-28T01:14:39.975Z,25.6
2018-07-28T01:14:49.976Z,25.64
2018-07-28T01:14:59.999Z,25.6
2018-07-28T01:15:10.012Z,25.59
2018-07-28T01:15:20.043Z,25.6
2018-07-28T01:15:30.032Z,25.59
2018-07-28T01:15:40.052Z,25.65
2018-07-28T01:15:50.086Z,25.59
2018-07-28T01:16:00.101Z,25.57
2018-07-28T01:16:10.094Z,25.62
2018-07-28T01:16:20.114Z,25.59
2018-07-28T01:16:30.141Z,25.67
2018-07-28T01:16:40.137Z,25.56
2018-07-28T01:16:50.161Z,25.6
2018-07-28T01:17:00.171Z,25.59
2018-07-28T01:17:10.163Z,25.65
2018-07-28T01:17:20.208Z,25.62
2018-07-28T01:17:30.224Z,25.62
2018-07-28T01:17:40.232Z,25.57
2018-07-28T01:17:50.231Z,25.6
2018-07-28T01:18:00.251Z,25.7
2018-07-28T01:18:10.282Z,25.59
2018-07-28T01:18:20.271Z,25.56
2018-07-28T01:18:30.306Z,25.57
2018-07-28T01:18:40.313Z,25.64
2018-07-28T01:18:50.311Z,25.56
2018-07-28T01:19:00.342Z,25.53
2018-07-28T01:19:10.352Z,25.57
2018-07-28T01:19:20.367Z,25.59
2018-07-28T01:19:30.373Z,25.55
2018-07-28T01:19:40.395Z,25.59
2018-07-28T01:19:50.392Z,25.67
2018-07-28T01:20:00.423Z,25.56
2018-07-28T01:20:10.427Z,25.56
2018-07-28T01:20:20.472Z,25.5
2018-07-28T01:20:30.455Z,25.59
2018-07-28T01:20:40.493Z,25.55
2018-07-28T01:20:50.499Z,25.56
2018-07-28T01:21:00.504Z,25.55
2018-07-28T01:21:10.519Z,25.62
2018-07-28T01:21:20.543Z,25.65
2018-07-28T01:21:30.546Z,25.57
2018-07-28T01:21:40.554Z,25.55
2018-07-28T01:21:50.622Z,25.59
2018-07-28T01:22:00.573Z,25.59
2018-07-28T01:22:10.603Z,25.56
2018-07-28T01:22:20.612Z,25.59
2018-07-28T01:22:30.632Z,25.6
2018-07-28T01:22:40.633Z,25.65
2018-07-28T01:22:50.663Z,25.59
2018-07-28T01:23:00.672Z,25.56
2018-07-28T01:23:10.682Z,25.57
2018-07-28T01:23:20.705Z,25.56
2018-07-28T01:23:30.732Z,25.62
2018-07-28T01:23:40.713Z,25.6
2018-07-28T01:23:50.733Z,25.55
2018-07-28T01:24:00.753Z,25.6
2018-07-28T01:24:10.763Z,25.59
2018-07-28T01:24:20.790Z,25.57
2018-07-28T01:24:30.792Z,25.67
2018-07-28T01:24:40.826Z,25.64
2018-07-28T01:24:50.832Z,25.67
2018-07-28T01:25:00.836Z,25.67
2018-07-28T01:25:10.864Z,25.53
2018-07-28T01:25:20.861Z,25.53
2018-07-28T01:25:30.891Z,25.64
2018-07-28T01:25:40.900Z,25.67
2018-07-28T01:25:50.892Z,25.52
2018-07-28T01:26:00.926Z,25.68
2018-07-28T01:26:10.945Z,25.57
2018-07-28T01:26:20.932Z,25.55
2018-07-28T01:26:30.955Z,25.65
2018-07-28T01:26:40.984Z,25.49
2018-07-28T01:26:50.982Z,25.5
2018-07-28T01:27:00.992Z,25.62
2018-07-28T01:27:11.023Z,25.52
2018-07-28T01:27:21.032Z,25.57
2018-07-28T01:27:31.033Z,25.62
2018-07-28T01:27:41.053Z,25.5
2018-07-28T01:27:51.072Z,25.56
2018-07-28T01:28:01.072Z,25.47
2018-07-28T01:28:11.104Z,25.5
2018-07-28T01:28:21.112Z,25.57
2018-07-28T01:28:31.126Z,25.55
2018-07-28T01:28:41.133Z,25.52
2018-07-28T01:28:51.159Z,25.5
2018-07-28T01:29:01.284Z,25.52
2018-07-28T01:29:11.193Z,25.57
2018-07-28T01:29:21.194Z,25.6
2018-07-28T01:29:31.233Z,25.55
2018-07-28T01:29:41.233Z,25.57
2018-07-28T01:29:51.237Z,25.56
2018-07-28T01:30:01.263Z,25.59
2018-07-28T01:30:11.253Z,25.64
2018-07-28T01:30:21.272Z,25.6
2018-07-28T01:30:31.304Z,25.59
2018-07-28T01:30:41.326Z,25.52
2018-07-28T01:30:51.309Z,25.64
2018-07-28T01:31:01.343Z,25.56
2018-07-28T01:31:11.353Z,25.53
2018-07-28T01:31:21.356Z,25.62
2018-07-28T01:31:31.373Z,25.47
2018-07-28T01:31:41.411Z,25.55
2018-07-28T01:31:51.393Z,25.55
2018-07-28T01:32:01.419Z,25.56
2018-07-28T01:32:11.443Z,25.57
2018-07-28T01:32:21.436Z,25.5
2018-07-28T01:32:31.453Z,25.62
2018-07-28T01:32:41.473Z,25.56
2018-07-28T01:32:51.477Z,25.55
2018-07-28T01:33:01.496Z,25.56
2018-07-28T01:33:11.534Z,25.57
2018-07-28T01:33:21.523Z,25.57
2018-07-28T01:33:31.534Z,25.49
2018-07-28T01:33:41.554Z,25.55
2018-07-28T01:33:51.585Z,25.55
2018-07-28T01:34:01.575Z,25.5
2018-07-28T01:34:11.593Z,25.59
2018-07-28T01:34:21.614Z,25.49
2018-07-28T01:34:31.619Z,25.57
2018-07-28T01:34:41.636Z,25.57
2018-07-28T01:34:51.654Z,25.57
2018-07-28T01:35:01.673Z,25.5
2018-07-28T01:35:11.685Z,25.46
2018-07-28T01:35:21.705Z,25.56
2018-07-28T01:35:31.705Z,25.47
2018-07-28T01:35:41.732Z,25.53
2018-07-28T01:35:51.745Z,25.5
2018-07-28T01:36:01.744Z,25.55
2018-07-28T01:36:11.758Z,25.52
2018-07-28T01:36:21.793Z,25.53
2018-07-28T01:36:31.794Z,25.53
2018-07-28T01:36:41.794Z,25.5
2018-07-28T01:36:51.814Z,25.56
2018-07-28T01:37:01.836Z,25.57
2018-07-28T01:37:11.842Z,25.52
2018-07-28T01:37:21.857Z,25.52
2018-07-28T01:37:31.874Z,25.5
2018-07-28T01:37:41.875Z,25.55
2018-07-28T01:37:51.925Z,25.5
2018-07-28T01:38:01.924Z,25.56
2018-07-28T01:38:11.919Z,25.56
2018-07-28T01:38:21.937Z,25.57
2018-07-28T01:38:31.960Z,25.57
2018-07-28T01:38:41.979Z,25.52
2018-07-28T01:38:51.984Z,25.55
2018-07-28T01:39:02.011Z,25.55
2018-07-28T01:39:12.004Z,25.53
2018-07-28T01:39:22.024Z,25.59
2018-07-28T01:39:32.033Z,25.62
2018-07-28T01:39:42.064Z,25.52
2018-07-28T01:39:52.055Z,25.5
2018-07-28T01:40:02.119Z,25.55
2018-07-28T01:40:12.114Z,25.59
2018-07-28T01:40:22.111Z,25.49
2018-07-28T01:40:32.142Z,25.49
2018-07-28T01:40:42.137Z,25.53
2018-07-28T01:40:52.162Z,25.49
2018-07-28T01:41:02.164Z,25.6
2018-07-28T01:41:12.173Z,25.65
2018-07-28T01:41:22.197Z,25.59
2018-07-28T01:41:32.202Z,25.59
2018-07-28T01:41:42.229Z,25.6
2018-07-28T01:41:52.283Z,25.57
2018-07-28T01:42:02.255Z,25.57
2018-07-28T01:42:12.657Z,25.56
2018-07-28T01:42:22.275Z,25.52
2018-07-28T01:42:32.275Z,25.57
2018-07-28T01:42:42.305Z,25.53
2018-07-28T01:42:52.315Z,25.53
2018-07-28T01:43:02.337Z,25.64
2018-07-28T01:43:12.344Z,25.55
2018-07-28T01:43:22.365Z,25.53
2018-07-28T01:43:32.409Z,25.6
2018-07-28T01:43:42.385Z,25.62
2018-07-28T01:43:52.396Z,25.55
2018-07-28T01:44:02.425Z,25.59
2018-07-28T01:44:12.426Z,25.62
2018-07-28T01:44:22.445Z,25.52
2018-07-28T01:44:32.462Z,25.56
2018-07-28T01:44:42.456Z,25.5
2018-07-28T01:44:52.475Z,25.62
2018-07-28T01:45:02.525Z,25.62
2018-07-28T01:45:12.541Z,25.53
2018-07-28T01:45:22.515Z,25.52
2018-07-28T01:45:32.546Z,25.57
2018-07-28T01:45:42.573Z,25.55
2018-07-28T01:45:52.564Z,25.49
2018-07-28T01:46:02.585Z,25.53
2018-07-28T01:46:12.599Z,25.46
2018-07-28T01:46:22.590Z,25.65
2018-07-28T01:46:32.620Z,25.53
2018-07-28T01:46:42.648Z,25.62
2018-07-28T01:46:52.646Z,25.5
2018-07-28T01:47:02.663Z,25.53
2018-07-28T01:47:12.665Z,25.59
2018-07-28T01:47:22.675Z,25.55
2018-07-28T01:47:32.706Z,25.57
2018-07-28T01:47:42.715Z,25.49
2018-07-28T01:47:52.746Z,25.55
2018-07-28T01:48:02.741Z,25.62
2018-07-28T01:48:12.764Z,25.42
2018-07-28T01:48:22.778Z,25.6
2018-07-28T01:48:32.789Z,25.47
2018-07-28T01:48:42.796Z,25.55
2018-07-28T01:48:52.815Z,25.56
2018-07-28T01:49:02.836Z,25.57
2018-07-28T01:49:12.836Z,25.49
2018-07-28T01:49:22.916Z,25.57
2018-07-28T01:49:32.887Z,25.59
2018-07-28T01:49:42.878Z,25.55
2018-07-28T01:49:52.897Z,25.53
2018-07-28T01:50:02.898Z,25.59
2018-07-28T01:50:12.918Z,25.52
2018-07-28T01:50:22.936Z,25.55
2018-07-28T01:50:32.937Z,25.59
2018-07-28T01:50:42.959Z,25.57
2018-07-28T01:50:52.978Z,25.55
2018-07-28T01:51:02.987Z,25.59
2018-07-28T01:51:12.995Z,25.62
2018-07-28T01:51:23.018Z,25.56
2018-07-28T01:51:33.021Z,25.47
2018-07-28T01:51:43.053Z,25.57
2018-07-28T01:51:53.057Z,25.56
2018-07-28T01:52:03.104Z,25.56
2018-07-28T01:52:13.076Z,25.56
2018-07-28T01:52:23.125Z,25.53
2018-07-28T01:52:33.130Z,25.52
2018-07-28T01:52:43.122Z,25.59
2018-07-28T01:52:53.150Z,25.52
2018-07-28T01:53:03.157Z,25.59
2018-07-28T01:53:13.157Z,25.59
2018-07-28T01:53:23.176Z,25.53
2018-07-28T01:53:33.193Z,25.53
2018-07-28T01:53:43.187Z,25.49
2018-07-28T01:53:53.219Z,25.49
2018-07-28T01:54:03.237Z,25.6
2018-07-28T01:54:13.256Z,25.56
2018-07-28T01:54:23.256Z,25.55
2018-07-28T01:54:33.284Z,25.49
2018-07-28T01:54:43.296Z,25.52
2018-07-28T01:54:53.306Z,25.5
2018-07-28T01:55:03.318Z,25.57
2018-07-28T01:55:13.336Z,25.5
2018-07-28T01:55:23.321Z,25.53
2018-07-28T01:55:33.368Z,25.52
2018-07-28T01:55:43.378Z,25.59
2018-07-28T01:55:53.381Z,25.56
2018-07-28T01:56:03.386Z,25.6
2018-07-28T01:56:13.417Z,25.57
2018-07-28T01:56:23.447Z,25.55
2018-07-28T01:56:33.440Z,25.6
2018-07-28T01:56:43.458Z,25.6
2018-07-28T01:56:53.474Z,25.5
2018-07-28T01:57:03.491Z,25.52
2018-07-28T01:57:13.508Z,25.53
2018-07-28T01:57:23.519Z,25.49
2018-07-28T01:57:33.517Z,25.6
2018-07-28T01:57:43.538Z,25.47
2018-07-28T01:57:53.567Z,25.55
2018-07-28T01:58:03.578Z,25.56
2018-07-28T01:58:13.585Z,25.52
2018-07-28T01:58:23.621Z,25.46
2018-07-28T01:58:33.596Z,25.55
2018-07-28T01:58:43.624Z,25.47
2018-07-28T01:58:53.627Z,25.6
2018-07-28T01:59:03.662Z,25.55
2018-07-28T01:59:13.659Z,25.49
2018-07-28T01:59:23.667Z,25.56
2018-07-28T01:59:33.698Z,25.56
2018-07-28T01:59:43.728Z,25.56
2018-07-28T01:59:53.733Z,25.47
2018-07-28T02:00:03.747Z,25.56
2018-07-28T02:00:13.745Z,25.53
2018-07-28T02:00:23.772Z,25.56
2018-07-28T02:00:33.778Z,25.55
2018-07-28T02:00:43.777Z,25.55
2018-07-28T02:00:53.797Z,25.6
2018-07-28T02:01:03.830Z,25.56
2018-07-28T02:01:13.837Z,25.56
2018-07-28T02:01:23.829Z,25.52
2018-07-28T02:01:33.848Z,25.53
2018-07-28T02:01:43.877Z,25.57
2018-07-28T02:01:53.878Z,25.55
2018-07-28T02:02:03.906Z,25.53
2018-07-28T02:02:13.918Z,25.49
2018-07-28T02:02:23.917Z,25.47
2018-07-28T02:02:33.951Z,25.56
2018-07-28T02:02:43.948Z,25.47
2018-07-28T02:02:53.958Z,25.49
2018-07-28T02:03:03.985Z,25.56
2018-07-28T02:03:13.988Z,25.56
2018-07-28T02:03:24.016Z,25.52
2018-07-28T02:03:34.018Z,25.6
2018-07-28T02:03:44.044Z,25.62
2018-07-28T02:03:54.057Z,25.53
2018-07-28T02:04:04.048Z,25.57
2018-07-28T02:04:14.078Z,25.57
2018-07-28T02:04:24.098Z,25.52
2018-07-28T02:04:34.106Z,25.55
2018-07-28T02:04:44.135Z,25.46
2018-07-28T02:04:54.128Z,25.53
2018-07-28T02:05:04.141Z,25.52
2018-07-28T02:05:14.166Z,25.53
2018-07-28T02:05:24.184Z,25.6
2018-07-28T02:05:34.221Z,25.52
2018-07-28T02:05:44.210Z,25.52
2018-07-28T02:05:54.229Z,25.53
2018-07-28T02:06:04.237Z,25.49
2018-07-28T02:06:14.240Z,25.52
2018-07-28T02:06:24.268Z,25.5
2018-07-28T02:06:34.279Z,25.47
2018-07-28T02:06:44.292Z,25.5
2018-07-28T02:06:54.305Z,25.47
2018-07-28T02:07:04.325Z,25.53
2018-07-28T02:07:14.328Z,25.45
2018-07-28T02:07:24.344Z,25.5
2018-07-28T02:07:34.349Z,25.52
2018-07-28T02:07:44.367Z,25.59
2018-07-28T02:07:54.368Z,25.52
2018-07-28T02:08:04.398Z,25.57
2018-07-28T02:08:14.420Z,25.6
2018-07-28T02:08:24.418Z,25.55
2018-07-28T02:08:34.457Z,25.52
2018-07-28T02:08:44.449Z,25.5
2018-07-28T02:08:54.468Z,25.52
2018-07-28T02:09:04.482Z,25.49
2018-07-28T02:09:14.491Z,25.56
2018-07-28T02:09:24.511Z,25.47
2018-07-28T02:09:34.519Z,25.5